Time;durP1;ratioP1;P1;durP2;ratioP2;P2;SDS_P1;SDS_P2;PMS_P1;PMS_P2;Temp;Humidity;BMP_temperature;BMP_pressure;BME280_temperature;BME280_humidity;BME280_pressure;Samples;Min_cycle;Max_cycle;Signal;HPM_P1;HPM_P2
2023/04/30 00:00:18;;;;;;;;;;;;;;;7.97;80.50;102281.03;5031219;28;1004;-75
2023/04/30 00:02:44;;;;;;;;;;;;;;;7.97;80.14;102283.63;5031315;28;1474;-74
2023/04/30 00:05:09;;;;;;;;;;;;;;;7.98;79.94;102285.28;5033064;28;1082;-76
2023/04/30 00:07:34;;;;;;;;;;;;;;;7.97;80.29;102283.63;5036826;28;1906;-75
2023/04/30 00:09:59;;;;;;;;;;;;;;;7.97;79.79;102287.91;5029823;28;1129;-75
2023/04/30 00:12:25;;;;;;;;;;;;;;;7.92;80.96;102283.00;5030092;28;1163;-76
2023/04/30 00:14:50;;;;;;;;;;;;;;;7.89;80.63;102284.88;5041607;28;1235;-75
2023/04/30 00:17:15;;;;;;;;;;;;;;;7.85;82.20;102284.16;5026852;28;1099;-76
2023/04/30 00:19:41;;;;;;;;;;;;;;;7.82;80.39;102284.31;5039637;28;1134;-75
2023/04/30 00:22:06;;;;;;;;;;;;;;;7.81;81.22;102277.50;5032900;28;1115;-75
2023/04/30 00:24:31;;;;;;;;;;;;;;;7.80;80.89;102281.00;5040649;28;1048;-75
2023/04/30 00:26:57;;;;;;;;;;;;;;;7.80;80.64;102286.16;5038877;28;1963;-75
2023/04/30 00:29:22;;;;;;;;;;;;;;;7.79;81.22;102281.88;5033369;28;1651;-75
2023/04/30 00:31:47;;;;;;;;;;;;;;;7.76;81.38;102284.63;5036801;28;1226;-76
2023/04/30 00:34:13;;;;;;;;;;;;;;;7.77;81.46;102285.44;5038930;28;1232;-74
2023/04/30 00:36:39;;;;;;;;;;;;;;;7.78;81.44;102282.78;5034862;28;1168;-75
2023/04/30 00:39:04;;;;;;;;;;;;;;;7.77;81.17;102281.13;5035357;28;1439;-76
2023/04/30 00:41:30;;;;;;;;;;;;;;;7.76;81.92;102283.78;5036433;28;1283;-74
2023/04/30 00:43:55;;;;;;;;;;;;;;;7.71;81.56;102282.25;5030946;28;1306;-74
2023/04/30 00:46:21;;;;;;;;;;;;;;;7.70;81.43;102290.06;5031572;28;1926;-75
2023/04/30 00:48:46;;;;;;;;;;;;;;;7.69;81.91;102290.97;5034398;28;1526;-75
2023/04/30 00:51:11;;;;;;;;;;;;;;;7.68;81.69;102297.03;5031491;28;1331;-75
2023/04/30 00:53:37;;;;;;;;;;;;;;;7.65;81.97;102297.19;5038124;28;1434;-75
2023/04/30 00:56:03;;;;;;;;;;;;;;;7.62;81.90;102294.72;5031750;28;1322;-76
2023/04/30 00:58:28;;;;;;;;;;;;;;;7.60;82.44;102299.13;5028912;28;1184;-75
2023/04/30 01:00:53;;;;;;;;;;;;;;;7.59;82.66;102297.47;5030335;28;1066;-74
2023/04/30 01:03:19;;;;;;;;;;;;;;;7.55;82.61;102295.91;5033440;28;1404;-75
2023/04/30 01:05:44;;;;;;;;;;;;;;;7.54;81.99;102299.41;5028284;28;1906;-74
2023/04/30 01:08:10;;;;;;;;;;;;;;;7.52;82.09;102301.22;5034096;28;1334;-76
2023/04/30 01:10:41;;;;;;;;;;;;;;;7.49;82.57;102302.19;5039538;28;1417;-76
2023/04/30 01:13:42;;;;;;;;;;;;;;;7.45;82.40;102301.50;5029159;28;1342;-76
2023/04/30 01:16:14;;;;;;;;;;;;;;;7.42;81.96;102304.22;4974930;28;1110;-74
2023/04/30 01:18:42;;;;;;;;;;;;;;;7.42;83.17;102296.47;5018433;28;1097;-75
2023/04/30 01:21:08;;;;;;;;;;;;;;;7.41;82.38;102299.97;5035041;28;1075;-74
2023/04/30 01:23:52;;;;;;;;;;;;;;;7.38;82.96;102297.50;5042248;28;1200;-75
2023/04/30 01:26:26;;;;;;;;;;;;;;;7.37;82.98;102298.41;5035611;28;2369;-75
2023/04/30 01:28:52;;;;;;;;;;;;;;;7.35;82.93;102300.25;5027029;28;1304;-75
2023/04/30 01:31:17;;;;;;;;;;;;;;;7.34;82.86;102293.41;5028428;28;1277;-75
2023/04/30 01:33:42;;;;;;;;;;;;;;;7.31;83.71;102293.53;5031336;28;1416;-75
2023/04/30 01:36:08;;;;;;;;;;;;;;;7.29;83.24;102290.19;5037180;28;1211;-76
2023/04/30 01:38:42;;;;;;;;;;;;;;;7.28;83.64;102285.91;5031777;28;1082;-75
2023/04/30 01:41:07;;;;;;;;;;;;;;;7.26;84.13;102287.72;5030379;28;1227;-74
2023/04/30 01:43:38;;;;;;;;;;;;;;;7.24;83.48;102276.66;5034144;28;1578;-74
2023/04/30 01:46:11;;;;;;;;;;;;;;;7.24;84.48;102286.13;5026866;28;1983;-75
2023/04/30 01:48:46;;;;;;;;;;;;;;;7.21;84.33;102284.50;5027759;28;1137;-76
2023/04/30 01:51:11;;;;;;;;;;;;;;;7.19;84.90;102286.34;5035604;28;1316;-76
2023/04/30 01:53:41;;;;;;;;;;;;;;;7.21;83.91;102286.25;5032389;28;1251;-74
2023/04/30 01:56:09;;;;;;;;;;;;;;;7.23;84.97;102294.78;5036908;28;1882;-78
2023/04/30 01:58:34;;;;;;;;;;;;;;;7.23;85.24;102289.63;5028149;28;1438;-77
2023/04/30 02:01:00;;;;;;;;;;;;;;;7.21;84.98;102292.25;5028772;28;1184;-74
2023/04/30 02:03:25;;;;;;;;;;;;;;;7.18;84.41;102293.25;5029995;28;1157;-75
2023/04/30 02:05:50;;;;;;;;;;;;;;;7.18;84.89;102294.97;5026396;28;1969;-76
2023/04/30 02:08:15;;;;;;;;;;;;;;;7.16;85.35;102294.19;5027313;28;1173;-76
2023/04/30 02:10:40;;;;;;;;;;;;;;;7.14;84.87;102296.00;5032672;28;1322;-77
2023/04/30 02:13:06;;;;;;;;;;;;;;;7.13;85.52;102289.19;5032106;28;1318;-75
2023/04/30 02:15:31;;;;;;;;;;;;;;;7.13;85.17;102291.75;5035062;28;1085;-76
2023/04/30 02:17:56;;;;;;;;;;;;;;;7.09;85.02;102296.22;5034491;28;1348;-75
2023/04/30 02:20:21;;;;;;;;;;;;;;;7.05;85.07;102280.91;5037426;28;1131;-74
2023/04/30 02:22:47;;;;;;;;;;;;;;;7.00;84.48;102293.22;5026572;28;1239;-75
2023/04/30 02:25:13;;;;;;;;;;;;;;;6.95;85.71;102295.16;5033253;28;1049;-76
2023/04/30 02:27:38;;;;;;;;;;;;;;;6.92;84.81;102296.94;5032683;28;1932;-74
2023/04/30 02:30:03;;;;;;;;;;;;;;;6.90;85.49;102301.31;5033781;28;1251;-76
2023/04/30 02:32:29;;;;;;;;;;;;;;;6.88;85.11;102298.00;5031440;28;1482;-75
2023/04/30 02:34:54;;;;;;;;;;;;;;;6.86;85.51;102297.19;5044944;28;1299;-74
2023/04/30 02:37:19;;;;;;;;;;;;;;;6.84;85.26;102293.84;5033515;28;1160;-75
2023/04/30 02:39:45;;;;;;;;;;;;;;;6.83;86.09;102297.34;5037416;28;1319;-74
2023/04/30 02:42:11;;;;;;;;;;;;;;;6.83;85.95;102297.34;5038006;28;1110;-76
2023/04/30 02:44:36;;;;;;;;;;;;;;;6.82;85.62;102292.22;5044053;28;1184;-75
2023/04/30 02:47:01;;;;;;;;;;;;;;;6.79;85.66;102290.63;5035678;28;1898;-75
2023/04/30 02:49:27;;;;;;;;;;;;;;;6.80;86.74;102292.31;5056178;28;1283;-76
2023/04/30 02:51:52;;;;;;;;;;;;;;;6.76;87.22;102295.91;5041796;28;1614;-76
2023/04/30 02:54:18;;;;;;;;;;;;;;;6.67;88.04;102301.47;5029786;28;1049;-75
2023/04/30 02:56:43;;;;;;;;;;;;;;;6.65;87.05;102298.09;5037305;28;1679;-76
2023/04/30 02:59:08;;;;;;;;;;;;;;;6.60;87.04;102297.47;5045030;28;1317;-75
2023/04/30 03:01:33;;;;;;;;;;;;;;;6.57;87.81;102298.41;5040966;28;1217;-75
2023/04/30 03:03:59;;;;;;;;;;;;;;;6.55;87.59;102297.66;5045458;28;1463;-76
2023/04/30 03:06:24;;;;;;;;;;;;;;;6.53;87.26;102298.59;5035941;28;2003;-74
2023/04/30 03:08:49;;;;;;;;;;;;;;;6.53;86.68;102298.59;5030938;28;1388;-77
2023/04/30 03:11:15;;;;;;;;;;;;;;;6.54;86.58;102300.28;5038823;28;1246;-76
2023/04/30 03:13:40;;;;;;;;;;;;;;;6.52;86.66;102302.91;5035929;28;1236;-74
2023/04/30 03:16:05;;;;;;;;;;;;;;;6.52;86.98;102299.50;5035115;28;1325;-76
2023/04/30 03:18:30;;;;;;;;;;;;;;;6.51;87.05;102290.09;5063671;23;1565;-75
2023/04/30 03:20:56;;;;;;;;;;;;;;;6.49;87.32;102297.06;5063007;28;1224;-75
2023/04/30 03:23:21;;;;;;;;;;;;;;;6.46;87.16;102286.88;5077580;28;1221;-76
2023/04/30 03:25:46;;;;;;;;;;;;;;;6.48;87.70;102285.06;5060436;28;2259;-75
2023/04/30 03:28:12;;;;;;;;;;;;;;;6.48;87.60;102290.22;5063844;28;1168;-77
2023/04/30 03:30:37;;;;;;;;;;;;;;;6.47;86.90;102283.38;5061460;28;1235;-74
2023/04/30 03:33:05;;;;;;;;;;;;;;;6.41;87.34;102283.63;5054302;28;1405;-76
2023/04/30 03:35:30;;;;;;;;;;;;;;;6.37;87.06;102283.78;5056825;28;1211;-75
2023/04/30 03:37:55;;;;;;;;;;;;;;;6.35;87.20;102280.41;5065436;28;1164;-75
2023/04/30 03:40:20;;;;;;;;;;;;;;;6.34;87.32;102289.03;5062193;28;1433;-77
2023/04/30 03:42:46;;;;;;;;;;;;;;;6.31;87.05;102278.88;5058291;28;991;-76
2023/04/30 03:45:11;;;;;;;;;;;;;;;6.29;87.16;102285.81;5064209;28;1338;-77
2023/04/30 03:47:36;;;;;;;;;;;;;;;6.28;87.58;102291.88;5057148;28;1891;-74
2023/04/30 03:50:02;;;;;;;;;;;;;;;6.25;87.65;102286.84;5063211;28;1520;-74
2023/04/30 03:52:28;;;;;;;;;;;;;;;6.26;88.10;102291.09;5064243;28;1647;-75
2023/04/30 03:54:53;;;;;;;;;;;;;;;6.26;88.37;102295.41;5065923;28;1314;-75
2023/04/30 03:57:18;;;;;;;;;;;;;;;6.22;87.49;102289.53;5058526;28;1331;-75
2023/04/30 03:59:43;;;;;;;;;;;;;;;6.21;87.70;102287.88;5062500;28;1340;-74
2023/04/30 04:02:09;;;;;;;;;;;;;;;6.22;87.90;102294.69;5064426;28;1529;-74
2023/04/30 04:04:34;;;;;;;;;;;;;;;6.23;88.03;102288.63;5057693;28;948;-75
2023/04/30 04:07:00;;;;;;;;;;;;;;;6.24;87.92;102287.72;5060190;28;2385;-76
2023/04/30 04:09:26;;;;;;;;;;;;;;;6.21;88.49;102287.88;5064444;28;1340;-74
2023/04/30 04:11:51;;;;;;;;;;;;;;;6.20;88.26;102290.50;5056151;28;1304;-74
2023/04/30 04:14:16;;;;;;;;;;;;;;;6.18;88.04;102295.69;5065952;28;1120;-74
2023/04/30 04:16:43;;;;;;;;;;;;;;;6.14;88.20;102286.44;5063286;28;1032;-74
2023/04/30 04:19:08;;;;;;;;;;;;;;;6.10;88.62;102290.03;5065570;28;1323;-75
2023/04/30 04:21:33;;;;;;;;;;;;;;;6.05;88.72;102294.50;5061494;28;1004;-74
2023/04/30 04:23:59;;;;;;;;;;;;;;;6.03;88.92;102293.75;5058575;28;1078;-77
2023/04/30 04:26:24;;;;;;;;;;;;;;;6.03;89.11;102293.75;5056742;28;2149;-74
2023/04/30 04:28:50;;;;;;;;;;;;;;;6.00;88.37;102292.13;5057697;28;1301;-75
2023/04/30 04:31:15;;;;;;;;;;;;;;;6.00;88.95;102299.00;5057286;28;1104;-76
2023/04/30 04:33:41;;;;;;;;;;;;;;;5.99;89.70;102300.75;5064882;28;1146;-75
2023/04/30 04:36:06;;;;;;;;;;;;;;;6.01;89.35;102298.09;5054780;28;1143;-76
2023/04/30 04:38:31;;;;;;;;;;;;;;;6.00;89.84;102299.00;5055859;28;1114;-74
2023/04/30 04:40:57;;;;;;;;;;;;;;;5.99;89.46;102293.00;5058744;28;1431;-75
2023/04/30 04:43:22;;;;;;;;;;;;;;;5.98;89.43;102290.50;5059959;28;1557;-74
2023/04/30 04:45:47;;;;;;;;;;;;;;;5.98;89.48;102295.66;5059258;28;1918;-74
2023/04/30 04:48:13;;;;;;;;;;;;;;;5.98;90.05;102290.50;5057031;28;1198;-74
2023/04/30 04:50:38;;;;;;;;;;;;;;;5.96;90.51;102295.69;5052584;28;1213;-74
2023/04/30 04:53:03;;;;;;;;;;;;;;;5.99;90.30;102292.19;5059245;28;1124;-74
2023/04/30 04:55:28;;;;;;;;;;;;;;;6.01;91.52;102290.38;5056787;28;1321;-76
2023/04/30 04:57:54;;;;;;;;;;;;;;;6.02;90.41;102297.19;5061702;28;1410;-76
2023/04/30 05:00:21;;;;;;;;;;;;;;;6.04;89.90;102303.16;5057376;28;1208;-75
2023/04/30 05:02:46;;;;;;;;;;;;;;;6.06;90.41;102309.06;5059796;28;1466;-74
2023/04/30 05:05:11;;;;;;;;;;;;;;;6.09;90.45;102311.53;5057867;28;1415;-75
2023/04/30 05:07:37;;;;;;;;;;;;;;;6.10;90.96;102310.63;5061617;28;1917;-74
2023/04/30 05:10:02;;;;;;;;;;;;;;;6.15;90.85;102319.03;5053374;28;1208;-74
2023/04/30 05:12:27;;;;;;;;;;;;;;;6.18;91.14;102308.59;5063657;28;1284;-75
2023/04/30 05:14:52;;;;;;;;;;;;;;;6.22;91.26;102309.31;5060190;28;1351;-74
2023/04/30 05:17:17;;;;;;;;;;;;;;;6.24;91.26;102313.50;5063027;28;1024;-74
2023/04/30 05:19:43;;;;;;;;;;;;;;;6.28;90.96;102312.47;5055719;28;1339;-74
2023/04/30 05:22:08;;;;;;;;;;;;;;;6.30;91.21;102313.25;5059606;28;1525;-74
2023/04/30 05:24:33;;;;;;;;;;;;;;;6.35;91.04;102306.16;5055323;28;1338;-75
2023/04/30 05:26:59;;;;;;;;;;;;;;;6.39;92.13;102310.31;5059405;28;1972;-77
2023/04/30 05:29:24;;;;;;;;;;;;;;;6.42;92.18;102306.75;5058137;28;1333;-74
2023/04/30 05:31:49;;;;;;;;;;;;;;;6.43;91.97;102303.31;5047451;28;1306;-75
2023/04/30 05:34:14;;;;;;;;;;;;;;;6.47;92.19;102309.16;5059774;28;1438;-75
2023/04/30 05:36:40;;;;;;;;;;;;;;;6.50;92.05;102298.75;5059298;28;1230;-75
2023/04/30 05:39:05;;;;;;;;;;;;;;;6.54;92.46;102310.59;5062829;28;1383;-78
2023/04/30 05:41:30;;;;;;;;;;;;;;;6.57;92.59;102300.16;5061898;28;1188;-74
2023/04/30 05:43:55;;;;;;;;;;;;;;;6.63;92.53;102305.91;5061248;28;1232;-75
2023/04/30 05:46:20;;;;;;;;;;;;;;;6.65;92.78;102293.78;5060340;28;1910;-74
2023/04/30 05:48:47;;;;;;;;;;;;;;;6.73;92.33;102300.38;5060663;28;1250;-76
2023/04/30 05:51:12;;;;;;;;;;;;;;;6.78;91.92;102304.44;5062302;28;1561;-76
2023/04/30 05:53:37;;;;;;;;;;;;;;;6.84;93.26;102304.16;5056078;28;1207;-75
2023/04/30 05:56:02;;;;;;;;;;;;;;;6.90;92.80;102293.59;5062616;28;1350;-74
2023/04/30 05:58:27;;;;;;;;;;;;;;;6.97;93.03;102303.66;5060567;28;997;-78
2023/04/30 06:00:53;;;;;;;;;;;;;;;7.02;93.39;102312.03;5061246;28;1278;-76
2023/04/30 06:03:19;;;;;;;;;;;;;;;7.08;93.75;102306.59;5058961;28;1250;-75
2023/04/30 06:05:44;;;;;;;;;;;;;;;7.14;92.74;102309.75;5058377;28;1959;-75
2023/04/30 06:08:09;;;;;;;;;;;;;;;7.23;92.78;102310.28;5059966;28;1427;-75
2023/04/30 06:10:35;;;;;;;;;;;;;;;7.29;92.62;102308.25;5064954;28;1132;-75
2023/04/30 06:13:00;;;;;;;;;;;;;;;7.37;92.95;102313.06;5065015;28;1277;-75
2023/04/30 06:15:25;;;;;;;;;;;;;;;7.46;92.12;102312.69;5063274;28;1258;-75
2023/04/30 06:17:50;;;;;;;;;;;;;;;7.55;92.85;102311.41;5063616;28;1153;-75
2023/04/30 06:20:16;;;;;;;;;;;;;;;7.63;92.66;102320.50;5054652;28;1069;-77
2023/04/30 06:22:41;;;;;;;;;;;;;;;7.73;92.02;102318.31;5059191;28;1090;-75
2023/04/30 06:25:06;;;;;;;;;;;;;;;7.80;92.11;102311.13;5070399;28;1161;-76
2023/04/30 06:27:32;;;;;;;;;;;;;;;7.87;92.11;102305.63;5054532;28;1898;-76
2023/04/30 06:29:57;;;;;;;;;;;;;;;7.96;91.24;102305.16;5061811;28;1086;-77
2023/04/30 06:32:22;;;;;;;;;;;;;;;8.04;91.65;102304.00;5052004;28;1118;-76
2023/04/30 06:34:48;;;;;;;;;;;;;;;8.14;91.94;102300.91;5055073;28;1401;-76
2023/04/30 06:37:13;;;;;;;;;;;;;;;8.22;91.82;102297.94;5055511;28;1172;-76
2023/04/30 06:39:38;;;;;;;;;;;;;;;8.29;91.63;102298.47;5057133;28;1206;-75
2023/04/30 06:42:03;;;;;;;;;;;;;;;8.34;91.84;102302.50;5061686;28;1488;-76
2023/04/30 06:44:28;;;;;;;;;;;;;;;8.44;91.19;102302.94;5056845;28;1181;-77
2023/04/30 06:46:54;;;;;;;;;;;;;;;8.55;91.61;102312.75;5063678;28;1945;-75
2023/04/30 06:49:19;;;;;;;;;;;;;;;8.62;91.50;102312.38;5065809;28;1137;-77
2023/04/30 06:51:44;;;;;;;;;;;;;;;8.70;91.11;102309.41;5060095;28;1432;-76
2023/04/30 06:54:10;;;;;;;;;;;;;;;8.77;90.61;102305.59;5058160;28;1838;-77
2023/04/30 06:56:35;;;;;;;;;;;;;;;8.86;90.31;102309.47;5063553;28;1198;-75
2023/04/30 06:59:00;;;;;;;;;;;;;;;8.93;90.13;102316.84;5067755;28;1300;-75
2023/04/30 07:01:25;;;;;;;;;;;;;;;9.00;89.66;102307.88;5059503;28;1285;-76
2023/04/30 07:03:53;;;;;;;;;;;;;;;9.10;89.74;102317.72;5068621;28;1107;-75
2023/04/30 07:06:18;;;;;;;;;;;;;;;9.16;88.70;102322.59;5066653;28;1894;-76
2023/04/30 07:08:43;;;;;;;;;;;;;;;9.18;88.27;102315.59;5057619;28;1177;-76
2023/04/30 07:11:08;;;;;;;;;;;;;;;9.22;88.23;102324.88;5063417;28;1276;-75
2023/04/30 07:13:34;;;;;;;;;;;;;;;9.26;88.00;102318.63;5067213;28;1240;-76
2023/04/30 07:15:59;;;;;;;;;;;;;;;9.30;87.92;102314.97;5063016;28;1298;-76
2023/04/30 07:18:24;;;;;;;;;;;;;;;9.38;87.44;102319.72;5062857;28;1497;-77
2023/04/30 07:20:50;;;;;;;;;;;;;;;9.42;86.98;102324.66;5059923;28;1390;-77
2023/04/30 07:23:15;;;;;;;;;;;;;;;9.49;87.68;102323.41;5060994;28;1085;-76
2023/04/30 07:25:40;;;;;;;;;;;;;;;9.58;87.08;102330.72;5057435;28;1906;-78
2023/04/30 07:28:05;;;;;;;;;;;;;;;9.66;86.46;102329.47;5062663;28;1080;-76
2023/04/30 07:30:30;;;;;;;;;;;;;;;9.77;85.67;102314.19;5055137;28;1067;-77
2023/04/30 07:32:56;;;;;;;;;;;;;;;9.77;85.88;102319.34;5060042;28;1098;-76
2023/04/30 07:35:21;;;;;;;;;;;;;;;9.85;86.66;102323.19;5058619;28;1138;-78
2023/04/30 07:37:46;;;;;;;;;;;;;;;9.94;85.77;102324.44;5062860;28;1376;-78
2023/04/30 07:40:12;;;;;;;;;;;;;;;10.00;85.35;102321.53;5061108;28;1059;-77
2023/04/30 07:42:44;;;;;;;;;;;;;;;10.08;85.24;102327.09;5063757;28;1206;-77
2023/04/30 07:45:09;;;;;;;;;;;;;;;10.16;85.06;102325.88;5052120;28;1171;-76
2023/04/30 07:47:34;;;;;;;;;;;;;;;10.25;84.47;102327.97;5056329;28;1894;-78
2023/04/30 07:49:59;;;;;;;;;;;;;;;10.27;84.17;102313.16;5059097;28;1035;-76
2023/04/30 07:52:25;;;;;;;;;;;;;;;10.32;83.75;102322.38;5060367;28;1198;-77
2023/04/30 07:54:50;;;;;;;;;;;;;;;10.47;83.43;102325.81;5063214;28;1083;-79
2023/04/30 07:57:15;;;;;;;;;;;;;;;10.41;83.92;102328.78;5065640;28;1179;-80
2023/04/30 07:59:40;;;;;;;;;;;;;;;10.48;83.31;102330.09;5064641;28;1300;-77
2023/04/30 08:02:06;;;;;;;;;;;;;;;10.56;82.85;102325.31;5058850;28;1179;-77
2023/04/30 08:04:31;;;;;;;;;;;;;;;10.64;81.68;102328.28;5053469;28;1335;-77
2023/04/30 08:06:56;;;;;;;;;;;;;;;10.69;82.90;102324.59;5058728;28;1964;-79
2023/04/30 08:09:22;;;;;;;;;;;;;;;10.78;82.41;102329.22;5061042;28;1099;-77
2023/04/30 08:11:47;;;;;;;;;;;;;;;10.93;83.28;102323.16;5054601;28;1134;-78
2023/04/30 08:14:12;;;;;;;;;;;;;;;11.00;81.08;102329.66;5060193;28;1046;-77
2023/04/30 08:16:37;;;;;;;;;;;;;;;11.06;82.17;102325.84;5062973;28;1174;-77
2023/04/30 08:19:03;;;;;;;;;;;;;;;11.07;80.14;102315.41;5057777;28;1187;-79
2023/04/30 08:21:29;;;;;;;;;;;;;;;11.20;81.99;102325.03;5065836;28;1308;-77
2023/04/30 08:23:54;;;;;;;;;;;;;;;11.28;81.73;102330.59;5056516;28;1185;-77
2023/04/30 08:26:20;;;;;;;;;;;;;;;11.34;79.55;102332.81;5062609;28;1894;-78
2023/04/30 08:28:45;;;;;;;;;;;;;;;11.32;78.30;102332.09;5059605;28;1154;-77
2023/04/30 08:31:11;;;;;;;;;;;;;;;11.37;80.05;102330.88;5065601;28;918;-78
2023/04/30 08:33:36;;;;;;;;;;;;;;;11.44;79.03;102334.75;5066376;28;1250;-77
2023/04/30 08:36:01;;;;;;;;;;;;;;;11.51;79.89;102335.22;5049217;28;1279;-78
2023/04/30 08:38:27;;;;;;;;;;;;;;;11.58;80.11;102330.47;5054979;28;1033;-77
2023/04/30 08:40:59;;;;;;;;;;;;;;;11.69;80.13;102328.06;5059357;28;1067;-78
2023/04/30 08:43:24;;;;;;;;;;;;;;;11.74;79.76;102330.38;5064189;28;1332;-77
2023/04/30 08:45:49;;;;;;;;;;;;;;;11.79;80.34;102328.31;5056895;28;1951;-76
2023/04/30 08:48:15;;;;;;;;;;;;;;;11.84;79.07;102327.13;5057085;28;1124;-77
2023/04/30 08:50:41;;;;;;;;;;;;;;;11.90;78.53;102336.31;5057275;28;1389;-78
2023/04/30 08:53:09;;;;;;;;;;;;;;;11.95;78.23;102331.66;5058693;28;1152;-77
2023/04/30 08:55:35;;;;;;;;;;;;;;;11.88;78.22;102332.97;5055576;28;1229;-77
2023/04/30 08:58:01;;;;;;;;;;;;;;;11.98;77.96;102336.66;5070909;28;1344;-77
2023/04/30 09:00:26;;;;;;;;;;;;;;;12.03;79.02;102332.00;5055758;28;1121;-77
2023/04/30 09:02:52;;;;;;;;;;;;;;;12.10;78.87;102328.09;5043495;28;1307;-77
2023/04/30 09:05:17;;;;;;;;;;;;;;;12.18;77.91;102325.00;5037161;28;1146;-77
2023/04/30 09:07:43;;;;;;;;;;;;;;;12.28;77.77;102330.44;5042663;28;1910;-77
2023/04/30 09:10:18;;;;;;;;;;;;;;;12.36;77.74;102322.97;5045264;28;1319;-77
2023/04/30 09:12:57;;;;;;;;;;;;;;;12.46;78.10;102319.66;5040695;28;1380;-81
2023/04/30 09:15:22;;;;;;;;;;;;;;;12.54;76.95;102315.72;5046611;28;1077;-77
2023/04/30 09:17:47;;;;;;;;;;;;;;;12.60;77.32;102316.13;5045663;28;1181;-78
2023/04/30 09:20:13;;;;;;;;;;;;;;;12.79;77.04;102323.56;5040064;28;1095;-77
2023/04/30 09:22:39;;;;;;;;;;;;;;;12.71;75.91;102318.84;5035901;28;1983;-80
2023/04/30 09:25:05;;;;;;;;;;;;;;;12.77;75.03;102313.25;5042055;28;1337;-79
2023/04/30 09:27:30;;;;;;;;;;;;;;;12.89;75.93;102326.38;5035841;28;1955;-77
2023/04/30 09:29:55;;;;;;;;;;;;;;;13.00;75.54;102308.25;5051523;28;1320;-78
2023/04/30 09:32:20;;;;;;;;;;;;;;;13.06;74.99;102314.81;5042983;28;1225;-77
2023/04/30 09:34:45;;;;;;;;;;;;;;;13.14;75.80;102310.75;5038131;28;1290;-78
2023/04/30 09:37:11;;;;;;;;;;;;;;;13.21;73.92;102301.59;5043880;28;1343;-79
2023/04/30 09:39:54;;;;;;;;;;;;;;;13.34;75.08;102311.19;5040681;28;1280;-78
2023/04/30 09:42:20;;;;;;;;;;;;;;;13.46;75.66;102308.53;5036103;28;1358;-78
2023/04/30 09:44:45;;;;;;;;;;;;;;;13.55;72.49;102314.91;5046463;28;1222;-79
2023/04/30 09:47:12;;;;;;;;;;;;;;;13.53;72.44;102301.13;5045698;28;1960;-79
2023/04/30 09:49:39;;;;;;;;;;;;;;;13.54;71.51;102308.03;5045107;28;1232;-78
2023/04/30 09:52:04;;;;;;;;;;;;;;;13.53;73.85;102301.13;5044234;28;1307;-78
2023/04/30 09:54:30;;;;;;;;;;;;;;;13.66;73.07;102301.09;5044175;28;1271;-77
2023/04/30 09:56:57;;;;;;;;;;;;;;;13.76;72.70;102292.53;5040976;28;1295;-79
2023/04/30 09:59:25;;;;;;;;;;;;;;;13.88;72.56;102289.94;5040239;28;1310;-80
2023/04/30 10:01:51;;;;;;;;;;;;;;;13.92;70.65;102291.41;5040924;28;1293;-78
2023/04/30 10:04:17;;;;;;;;;;;;;;;13.99;70.04;102287.41;5039767;28;1569;-78
2023/04/30 10:06:43;;;;;;;;;;;;;;;14.13;69.21;102295.06;5041061;28;1898;-78
2023/04/30 10:09:10;;;;;;;;;;;;;;;14.00;70.25;102289.09;5037218;28;1267;-79
2023/04/30 10:11:36;;;;;;;;;;;;;;;14.03;68.31;102278.41;5039753;28;1176;-78
2023/04/30 10:14:03;;;;;;;;;;;;;;;14.10;69.98;102279.63;5039330;28;1022;-78
2023/04/30 10:16:46;;;;;;;;;;;;;;;14.24;69.90;102271.63;5050854;28;1205;-78
2023/04/30 10:19:21;;;;;;;;;;;;;;;14.16;68.73;102276.56;5032018;28;1349;-78
2023/04/30 10:21:47;;;;;;;;;;;;;;;14.18;69.37;102277.28;5033512;28;1025;-79
2023/04/30 10:24:12;;;;;;;;;;;;;;;14.19;68.76;102276.34;5041801;28;1165;-78
2023/04/30 10:26:39;;;;;;;;;;;;;;;14.26;68.83;102264.50;5041179;28;1897;-78
2023/04/30 10:29:04;;;;;;;;;;;;;;;14.33;68.84;102268.31;5059096;28;1293;-78
2023/04/30 10:31:29;;;;;;;;;;;;;;;14.43;68.75;102265.03;5040500;28;1397;-79
2023/04/30 10:33:58;;;;;;;;;;;;;;;14.46;68.78;102270.84;5041688;28;1086;-79
2023/04/30 10:36:27;;;;;;;;;;;;;;;14.47;66.81;102267.31;5042398;28;1130;-78
2023/04/30 10:38:52;;;;;;;;;;;;;;;14.54;66.77;102268.53;5037464;28;1445;-80
2023/04/30 10:41:18;;;;;;;;;;;;;;;14.63;67.26;102272.22;5042226;28;1343;-78
2023/04/30 10:43:45;;;;;;;;;;;;;;;14.73;66.49;102267.13;5040608;28;1224;-78
2023/04/30 10:46:11;;;;;;;;;;;;;;;14.80;66.16;102263.94;5043986;28;1894;-79
2023/04/30 10:48:36;;;;;;;;;;;;;;;14.77;66.07;102258.94;5043475;28;1296;-79
2023/04/30 10:51:02;;;;;;;;;;;;;;;14.82;66.23;102261.22;5039510;28;1318;-78
2023/04/30 10:53:30;;;;;;;;;;;;;;;14.87;66.18;102254.69;5041948;28;1306;-78
2023/04/30 10:56:00;;;;;;;;;;;;;;;14.92;66.15;102256.13;5037817;28;1321;-79
2023/04/30 10:58:28;;;;;;;;;;;;;;;15.05;64.41;102254.22;5038915;28;1198;-78
2023/04/30 11:01:05;;;;;;;;;;;;;;;15.01;63.34;102255.38;5044478;28;1288;-78
2023/04/30 11:03:31;;;;;;;;;;;;;;;15.05;66.22;102246.38;5042499;28;1216;-75
2023/04/30 11:05:58;;;;;;;;;;;;;;;15.19;66.19;102243.50;5047040;28;1941;-74
2023/04/30 11:08:33;;;;;;;;;;;;;;;15.30;65.23;102238.25;5042733;28;1454;-76
2023/04/30 11:11:00;;;;;;;;;;;;;;;15.34;65.14;102237.06;5038302;28;1064;-76
2023/04/30 11:13:25;;;;;;;;;;;;;;;15.45;63.96;102232.78;5036904;28;1513;-77
2023/04/30 11:15:51;;;;;;;;;;;;;;;15.50;65.33;102234.06;5037047;28;1107;-76
2023/04/30 11:18:17;;;;;;;;;;;;;;;15.62;64.34;102243.56;5043299;28;1584;-77
2023/04/30 11:20:48;;;;;;;;;;;;;;;15.59;60.77;102237.72;5040558;28;1136;-76
2023/04/30 11:23:14;;;;;;;;;;;;;;;15.64;63.22;102227.75;5048302;28;1267;-76
2023/04/30 11:25:41;;;;;;;;;;;;;;;15.63;60.57;102231.31;5040450;28;1214;-77
2023/04/30 11:28:06;;;;;;;;;;;;;;;15.59;60.77;102233.31;5045087;28;1958;-76
2023/04/30 11:30:32;;;;;;;;;;;;;;;15.64;62.18;102222.50;5044968;28;1521;-77
2023/04/30 11:32:58;;;;;;;;;;;;;;;15.74;62.49;102218.22;5045414;28;1528;-76
2023/04/30 11:35:23;;;;;;;;;;;;;;;15.86;61.33;102211.13;5038521;28;1154;-75
2023/04/30 11:37:53;;;;;;;;;;;;;;;15.82;62.06;102210.56;5040650;28;1087;-79
2023/04/30 11:40:19;;;;;;;;;;;;;;;15.85;61.35;102210.31;5042254;28;1031;-78
2023/04/30 11:42:45;;;;;;;;;;;;;;;15.90;61.04;102200.31;5043041;28;1153;-78
2023/04/30 11:45:11;;;;;;;;;;;;;;;15.97;60.71;102198.00;5043355;28;1278;-77
2023/04/30 11:47:39;;;;;;;;;;;;;;;15.95;61.07;102188.63;5041770;28;1943;-76
2023/04/30 11:50:06;;;;;;;;;;;;;;;16.10;62.12;102198.63;5046128;28;1167;-75
2023/04/30 11:52:31;;;;;;;;;;;;;;;16.18;59.14;102184.94;5040851;28;1255;-78
2023/04/30 11:54:56;;;;;;;;;;;;;;;16.31;61.30;102180.31;5038514;28;1317;-75
2023/04/30 11:57:22;;;;;;;;;;;;;;;16.33;58.93;102180.19;5034847;28;1530;-76
2023/04/30 11:59:48;;;;;;;;;;;;;;;16.33;59.86;102183.63;5045196;28;1526;-76
2023/04/30 12:02:14;;;;;;;;;;;;;;;16.38;58.49;102185.84;5058662;28;1293;-76
2023/04/30 12:04:41;;;;;;;;;;;;;;;16.40;59.51;102179.56;5045129;28;1147;-75
2023/04/30 12:07:07;;;;;;;;;;;;;;;16.40;60.33;102174.31;5040391;28;1885;-75
2023/04/30 12:09:50;;;;;;;;;;;;;;;16.48;60.19;102176.28;5045082;28;1346;-76
2023/04/30 12:12:25;;;;;;;;;;;;;;;16.69;59.75;102177.06;5050831;28;1187;-77
2023/04/30 12:14:50;;;;;;;;;;;;;;;16.65;58.15;102178.28;5042847;28;1560;-78
2023/04/30 12:17:29;;;;;;;;;;;;;;;16.67;59.22;102175.53;5041636;28;1016;-76
2023/04/30 12:19:55;;;;;;;;;;;;;;;16.74;59.80;102176.66;5038721;28;1111;-76
2023/04/30 12:22:20;;;;;;;;;;;;;;;16.77;57.75;102176.41;5044142;28;1225;-77
2023/04/30 12:24:45;;;;;;;;;;;;;;;16.69;58.93;102168.38;5034556;28;1292;-75
2023/04/30 12:27:13;;;;;;;;;;;;;;;16.77;59.49;102171.19;5032156;28;1915;-76
2023/04/30 12:29:39;;;;;;;;;;;;;;;16.90;60.22;102171.75;5046525;28;1020;-76
2023/04/30 12:32:04;;;;;;;;;;;;;;;16.89;56.60;102175.34;5047059;28;1106;-75
2023/04/30 12:34:31;;;;;;;;;;;;;;;16.91;58.26;102168.19;5045390;28;929;-76
2023/04/30 12:36:57;;;;;;;;;;;;;;;16.84;58.11;102167.06;5036574;28;1205;-76
2023/04/30 12:39:22;;;;;;;;;;;;;;;16.90;58.72;102166.53;5034147;28;1074;-76
2023/04/30 12:41:48;;;;;;;;;;;;;;;16.90;56.95;102156.03;5042095;28;1233;-78
2023/04/30 12:44:14;;;;;;;;;;;;;;;16.77;55.37;102160.69;5043117;28;1117;-77
2023/04/30 12:46:40;;;;;;;;;;;;;;;16.72;57.00;102147.16;5045909;28;1901;-76